createdAt,value
2018-11-10T00:00:23.246Z,10.29
2018-11-10T00:00:57.611Z,10.29
2018-11-10T00:01:31.990Z,10.43
2018-11-10T00:02:06.699Z,10.50
2018-11-10T00:02:41.400Z,10.41
2018-11-10T00:03:16.023Z,10.33
2018-11-10T00:03:50.584Z,10.46
2018-11-10T00:04:24.981Z,10.43
2018-11-10T00:04:59.560Z,10.37
2018-11-10T00:05:34.278Z,10.34
2018-11-10T00:06:08.647Z,10.34
2018-11-10T00:06:43.480Z,10.54
2018-11-10T00:07:18.123Z,10.67
2018-11-10T00:07:52.612Z,10.56
2018-11-10T00:08:27.401Z,10.47
2018-11-10T00:09:01.848Z,10.52
2018-11-10T00:09:36.313Z,10.48
2018-11-10T00:10:10.765Z,10.54
2018-11-10T00:10:45.244Z,10.52
2018-11-10T00:11:19.868Z,10.41
2018-11-10T00:11:54.269Z,10.33
2018-11-10T00:12:28.671Z,10.32
2018-11-10T00:13:03.038Z,10.31
2018-11-10T00:13:37.446Z,10.22
2018-11-10T00:14:12.286Z,10.16
2018-11-10T00:14:46.996Z,10.20
2018-11-10T00:15:21.415Z,10.08
2018-11-10T00:15:55.816Z,10.04
2018-11-10T00:16:30.230Z,10.16
2018-11-10T00:17:04.790Z,10.13
2018-11-10T00:17:39.553Z,10.11
2018-11-10T00:18:14.283Z,10.01
2018-11-10T00:18:48.844Z,9.93
2018-11-10T00:19:23.388Z,9.93
2018-11-10T00:19:57.763Z,10.00
2018-11-10T00:20:32.320Z,9.99
2018-11-10T00:21:06.672Z,9.91
2018-11-10T00:21:41.073Z,9.99
2018-11-10T00:22:15.886Z,9.91
2018-11-10T00:22:50.375Z,9.86
2018-11-10T00:23:24.754Z,9.81
2018-11-10T00:23:59.277Z,9.92
2018-11-10T00:24:33.685Z,9.95
2018-11-10T00:25:10.393Z,10.04
2018-11-10T00:25:44.937Z,10.05
2018-11-10T00:26:19.807Z,10.08
2018-11-10T00:26:54.180Z,10.21
2018-11-10T00:27:28.549Z,10.02
2018-11-10T00:28:02.929Z,9.90
2018-11-10T00:28:37.347Z,9.82
2018-11-10T00:29:12.074Z,9.77
2018-11-10T00:29:46.516Z,9.70
2018-11-10T00:30:21.153Z,9.73
2018-11-10T00:30:55.574Z,9.71
2018-11-10T00:31:29.928Z,9.74
2018-11-10T00:32:04.333Z,9.69
2018-11-10T00:32:38.930Z,9.64
2018-11-10T00:33:13.582Z,9.63
2018-11-10T00:33:48.296Z,9.60
2018-11-10T00:34:22.968Z,9.58
2018-11-10T00:34:57.340Z,9.53
2018-11-10T00:35:31.778Z,9.67
2018-11-10T00:36:06.205Z,9.60
2018-11-10T00:36:41.022Z,9.55
2018-11-10T00:37:15.614Z,9.51
2018-11-10T00:37:50.072Z,9.47
2018-11-10T00:38:24.404Z,9.63
2018-11-10T00:38:58.812Z,9.80
2018-11-10T00:39:33.196Z,9.75
2018-11-10T00:40:09.160Z,9.64
2018-11-10T00:40:43.888Z,9.61
2018-11-10T00:41:19.019Z,9.54
2018-11-10T00:41:53.375Z,9.54
2018-11-10T00:42:27.725Z,9.48
2018-11-10T00:43:02.163Z,9.46
2018-11-10T00:43:36.991Z,9.41
2018-11-10T00:44:11.989Z,9.41
2018-11-10T00:44:46.792Z,9.39
2018-11-10T00:45:21.556Z,9.44
2018-11-10T00:45:55.967Z,9.43
2018-11-10T00:46:30.436Z,9.39
2018-11-10T00:47:05.777Z,9.38
2018-11-10T00:47:40.382Z,9.37
2018-11-10T00:48:15.093Z,9.38
2018-11-10T00:48:49.675Z,9.40
2018-11-10T00:49:24.094Z,9.40
2018-11-10T00:49:58.471Z,9.38
2018-11-10T00:50:32.856Z,9.37
2018-11-10T00:51:07.640Z,9.33
2018-11-10T00:51:42.159Z,9.33
2018-11-10T00:52:16.792Z,9.42
2018-11-10T00:52:51.734Z,9.38
2018-11-10T00:53:26.175Z,9.36
2018-11-10T00:54:00.611Z,9.35
2018-11-10T00:54:35.069Z,9.38
2018-11-10T00:55:09.852Z,9.40
2018-11-10T00:55:44.913Z,9.38
2018-11-10T00:56:19.535Z,9.43
2018-11-10T00:56:53.919Z,9.46
2018-11-10T00:57:28.309Z,9.50
2018-11-10T00:58:02.701Z,9.51
2018-11-10T00:58:37.190Z,9.51
2018-11-10T00:59:12.777Z,9.50
2018-11-10T00:59:47.286Z,9.47
2018-11-10T01:00:21.500Z,9.48
2018-11-10T01:00:55.902Z,9.49
2018-11-10T01:01:30.760Z,9.46
2018-11-10T01:02:05.142Z,9.51
2018-11-10T01:02:39.602Z,9.54
2018-11-10T01:03:14.161Z,9.54
2018-11-10T01:03:48.754Z,9.68
2018-11-10T01:04:23.155Z,9.63
2018-11-10T01:04:57.543Z,9.62
2018-11-10T01:05:32.031Z,9.65
2018-11-10T01:06:06.584Z,9.69
2018-11-10T01:06:41.100Z,9.71
2018-11-10T01:07:15.916Z,9.69
2018-11-10T01:07:50.375Z,9.65
2018-11-10T01:08:24.807Z,9.65
2018-11-10T01:08:59.177Z,9.71
2018-11-10T01:09:33.577Z,9.68
2018-11-10T01:10:10.469Z,9.64
2018-11-10T01:10:45.143Z,9.59
2018-11-10T01:11:20.065Z,9.58
2018-11-10T01:11:54.423Z,9.57
2018-11-10T01:12:28.945Z,9.54
2018-11-10T01:13:03.320Z,9.51
2018-11-10T01:13:37.731Z,9.50
2018-11-10T01:14:12.251Z,9.59
2018-11-10T01:14:46.732Z,9.52
2018-11-10T01:15:21.177Z,9.49
2018-11-10T01:15:55.951Z,9.51
2018-11-10T01:16:30.386Z,9.54
2018-11-10T01:17:04.767Z,9.48
2018-11-10T01:17:39.393Z,9.48
2018-11-10T01:18:14.277Z,9.46
2018-11-10T01:18:48.998Z,9.53
2018-11-10T01:19:23.605Z,9.55
2018-11-10T01:19:57.976Z,9.54
2018-11-10T01:20:32.433Z,9.65
2018-11-10T01:21:07.203Z,9.62
2018-11-10T01:21:42.638Z,9.62
2018-11-10T01:22:17.454Z,9.61
2018-11-10T01:22:51.929Z,9.60
2018-11-10T01:23:26.724Z,9.62
2018-11-10T01:24:01.117Z,9.61
2018-11-10T01:24:35.618Z,9.57
2018-11-10T01:25:11.250Z,9.55
2018-11-10T01:25:45.999Z,9.54
2018-11-10T01:26:20.480Z,9.54
2018-11-10T01:26:54.827Z,9.58
2018-11-10T01:27:29.224Z,9.56
2018-11-10T01:28:04.177Z,9.63
2018-11-10T01:28:38.856Z,9.62
2018-11-10T01:29:14.039Z,9.61
2018-11-10T01:29:48.645Z,9.58
2018-11-10T01:30:23.167Z,9.58
2018-11-10T01:30:57.519Z,9.54
2018-11-10T01:31:31.938Z,9.55
2018-11-10T01:32:07.032Z,9.54
2018-11-10T01:32:41.724Z,9.57
2018-11-10T01:33:16.297Z,9.60
2018-11-10T01:33:50.856Z,9.63
2018-11-10T01:34:25.292Z,9.61
2018-11-10T01:34:59.653Z,9.64
2018-11-10T01:35:34.208Z,9.77
2018-11-10T01:36:08.644Z,9.81
2018-11-10T01:36:43.378Z,9.80
2018-11-10T01:37:18.155Z,9.76
2018-11-10T01:37:52.740Z,9.73
2018-11-10T01:38:27.097Z,9.74
2018-11-10T01:39:02.577Z,9.74
2018-11-10T01:39:36.984Z,9.71
2018-11-10T01:40:12.965Z,9.76
2018-11-10T01:40:47.499Z,9.75
2018-11-10T01:41:21.951Z,9.83
2018-11-10T01:41:56.340Z,9.79
2018-11-10T01:42:30.710Z,9.77
2018-11-10T01:43:05.160Z,9.73
2018-11-10T01:43:39.571Z,9.62
2018-11-10T01:44:14.650Z,9.80
2018-11-10T01:44:49.408Z,9.78
2018-11-10T01:45:23.802Z,9.77
2018-11-10T01:45:58.208Z,9.72
2018-11-10T01:47:35.726Z,9.76
2018-11-10T01:48:10.113Z,9.92
2018-11-10T01:48:45.114Z,9.98
2018-11-10T01:49:19.891Z,9.91
2018-11-10T01:49:54.277Z,9.91
2018-11-10T01:50:28.663Z,9.95
2018-11-10T01:51:03.003Z,9.89
2018-11-10T01:51:37.588Z,9.83
2018-11-10T01:52:12.076Z,9.81
2018-11-10T01:52:46.760Z,9.82
2018-11-10T01:53:21.665Z,9.76
2018-11-10T01:53:56.272Z,9.75
2018-11-10T01:54:30.688Z,9.78
2018-11-10T01:55:06.234Z,9.78
2018-11-10T01:55:41.094Z,9.76
2018-11-10T01:56:15.781Z,9.78
2018-11-10T01:56:50.418Z,9.79
2018-11-10T01:57:25.033Z,9.92
2018-11-10T01:57:59.415Z,9.86
2018-11-10T01:58:33.841Z,9.81
2018-11-10T01:59:08.225Z,9.81
2018-11-10T01:59:42.935Z,9.76
2018-11-10T02:00:18.691Z,9.71
2018-11-10T02:00:53.205Z,9.71
2018-11-10T02:01:27.620Z,9.72
2018-11-10T02:02:01.976Z,9.70
2018-11-10T02:02:36.171Z,9.70
2018-11-10T02:03:10.750Z,9.68
2018-11-10T02:03:45.238Z,9.71
2018-11-10T02:04:19.717Z,9.76
2018-11-10T02:04:54.180Z,9.77
2018-11-10T02:05:28.586Z,9.82
2018-11-10T02:06:02.986Z,9.86
2018-11-10T02:06:37.386Z,9.88
2018-11-10T02:07:12.118Z,9.91
2018-11-10T02:07:46.575Z,9.96
2018-11-10T02:08:21.320Z,10.02
2018-11-10T02:08:55.713Z,9.95
2018-11-10T02:09:30.128Z,9.90
2018-11-10T02:10:04.896Z,10.04
2018-11-10T02:10:39.253Z,10.10
2018-11-10T02:11:13.811Z,10.06
2018-11-10T02:11:48.336Z,9.99
2018-11-10T02:12:22.676Z,9.93
2018-11-10T02:12:57.034Z,9.91
2018-11-10T02:13:31.844Z,9.85
2018-11-10T02:14:06.270Z,9.98
2018-11-10T02:14:40.724Z,10.04
2018-11-10T02:15:16.442Z,10.04
2018-11-10T02:15:50.972Z,10.08
2018-11-10T02:16:25.416Z,10.03
2018-11-10T02:16:59.795Z,9.99
2018-11-10T02:17:34.153Z,10.08
2018-11-10T02:18:08.501Z,10.15
2018-11-10T02:18:43.417Z,10.09
2018-11-10T02:19:17.951Z,10.06
2018-11-10T02:19:52.412Z,9.73
2018-11-10T02:20:26.850Z,9.95
2018-11-10T02:21:01.200Z,9.91
2018-11-10T02:21:35.586Z,9.88
2018-11-10T02:22:10.027Z,9.89
2018-11-10T02:22:44.872Z,9.87
2018-11-10T02:23:19.567Z,10.07
2018-11-10T02:23:54.340Z,10.05
2018-11-10T02:24:28.770Z,10.08
2018-11-10T02:25:03.541Z,10.23
2018-11-10T02:25:37.949Z,10.19
2018-11-10T02:26:12.960Z,10.11
2018-11-10T02:26:47.931Z,10.02
2018-11-10T02:27:23.676Z,10.00
2018-11-10T02:27:58.053Z,9.98
2018-11-10T02:28:32.774Z,9.98
2018-11-10T02:29:07.116Z,9.96
2018-11-10T02:29:42.112Z,10.06
2018-11-10T02:30:16.686Z,10.15
2018-11-10T02:30:51.237Z,10.13
2018-11-10T02:31:25.649Z,10.09
2018-11-10T02:31:59.999Z,9.99
2018-11-10T02:32:34.364Z,9.95
2018-11-10T02:33:08.808Z,9.85
2018-11-10T02:33:43.732Z,9.84
2018-11-10T02:34:18.328Z,9.80
2018-11-10T02:34:53.262Z,9.78
2018-11-10T02:35:27.701Z,9.74
2018-11-10T02:36:02.113Z,9.79
2018-11-10T02:36:36.630Z,9.77
2018-11-10T02:37:11.395Z,9.76
2018-11-10T02:37:46.032Z,9.75
2018-11-10T02:38:20.541Z,9.73
2018-11-10T02:38:55.054Z,9.88
2018-11-10T02:39:29.489Z,9.91
2018-11-10T02:40:03.995Z,9.86
2018-11-10T02:40:38.338Z,9.83
2018-11-10T02:41:13.248Z,9.82
2018-11-10T02:41:47.882Z,9.83
2018-11-10T02:42:22.513Z,9.86
2018-11-10T02:42:56.888Z,9.91
2018-11-10T02:43:31.282Z,10.06
2018-11-10T02:44:06.349Z,10.01
2018-11-10T02:44:41.022Z,10.01
2018-11-10T02:45:16.018Z,9.95
2018-11-10T02:45:50.568Z,10.06
2018-11-10T02:46:24.958Z,10.00
2018-11-10T02:46:59.470Z,9.94
2018-11-10T02:47:33.844Z,10.08
2018-11-10T02:48:08.251Z,10.03
2018-11-10T02:48:42.892Z,10.03
2018-11-10T02:49:17.464Z,10.00
2018-11-10T02:49:52.339Z,10.07
2018-11-10T02:50:26.814Z,9.96
2018-11-10T02:51:01.145Z,9.91
2018-11-10T02:51:35.577Z,9.90
2018-11-10T02:52:09.950Z,9.88
2018-11-10T02:52:44.767Z,9.86
2018-11-10T02:53:19.381Z,9.85
2018-11-10T02:53:54.160Z,9.93
2018-11-10T02:54:28.556Z,9.86
2018-11-10T02:55:03.373Z,9.86
2018-11-10T02:55:37.736Z,9.87
2018-11-10T02:56:12.334Z,9.91
2018-11-10T02:56:47.400Z,9.90
2018-11-10T02:57:21.823Z,9.88
2018-11-10T02:57:56.173Z,9.87
2018-11-10T02:58:30.627Z,9.90
2018-11-10T02:59:05.552Z,9.93
2018-11-10T02:59:40.074Z,9.91
2018-11-10T03:00:15.696Z,9.82
2018-11-10T03:00:50.139Z,9.88
2018-11-10T03:01:24.517Z,9.89
2018-11-10T03:01:58.908Z,9.86
2018-11-10T03:02:33.255Z,9.85
2018-11-10T03:03:07.857Z,9.97
2018-11-10T03:03:42.611Z,9.91
2018-11-10T03:04:17.309Z,9.92
2018-11-10T03:04:51.772Z,9.86
2018-11-10T03:05:26.131Z,9.84
2018-11-10T03:06:00.508Z,9.83
2018-11-10T03:06:34.877Z,9.85
2018-11-10T03:07:09.567Z,9.91
2018-11-10T03:07:44.309Z,9.88
2018-11-10T03:08:18.872Z,9.84
2018-11-10T03:08:53.360Z,9.82
2018-11-10T03:09:27.729Z,9.82
2018-11-10T03:10:02.144Z,9.98
2018-11-10T03:10:36.650Z,10.08
2018-11-10T03:11:11.638Z,10.16
2018-11-10T03:11:47.103Z,10.09
2018-11-10T03:12:21.592Z,10.09
2018-11-10T03:12:55.966Z,10.12
2018-11-10T03:13:30.426Z,10.00
2018-11-10T03:14:05.184Z,9.96
2018-11-10T03:14:39.812Z,9.94
2018-11-10T03:15:14.941Z,10.03
2018-11-10T03:15:49.800Z,10.07
2018-11-10T03:16:24.194Z,10.07
2018-11-10T03:16:58.779Z,10.06
2018-11-10T03:17:33.234Z,9.98
2018-11-10T03:18:07.636Z,9.93
2018-11-10T03:18:42.050Z,9.94
2018-11-10T03:19:16.914Z,9.65
2018-11-10T03:19:51.556Z,9.84
2018-11-10T03:20:25.972Z,9.87
2018-11-10T03:21:00.320Z,9.84
2018-11-10T03:21:34.812Z,9.81
2018-11-10T03:22:09.192Z,9.89
2018-11-10T03:22:44.063Z,9.85
2018-11-10T03:23:18.659Z,9.91
2018-11-10T03:23:53.071Z,10.07
2018-11-10T03:24:27.412Z,9.96
2018-11-10T03:25:01.818Z,10.00
2018-11-10T03:25:36.287Z,10.00
2018-11-10T03:26:10.794Z,9.97
2018-11-10T03:26:45.468Z,9.95
2018-11-10T03:27:20.396Z,9.92
2018-11-10T03:27:54.833Z,9.92
2018-11-10T03:28:29.176Z,9.92
2018-11-10T03:29:03.543Z,9.99
2018-11-10T03:29:37.929Z,10.01
2018-11-10T03:30:12.873Z,9.95
2018-11-10T03:30:47.587Z,9.99
2018-11-10T03:31:22.565Z,10.14
2018-11-10T03:31:57.076Z,10.08
2018-11-10T03:32:31.477Z,10.08
2018-11-10T03:33:06.508Z,10.18
2018-11-10T03:33:41.156Z,10.19
2018-11-10T03:34:16.222Z,10.16
2018-11-10T03:34:50.765Z,10.08
2018-11-10T03:35:25.332Z,10.00
2018-11-10T03:35:59.702Z,9.99
2018-11-10T03:36:34.082Z,9.93
2018-11-10T03:37:09.247Z,10.01
2018-11-10T03:37:43.867Z,9.98
2018-11-10T03:38:18.373Z,10.00
2018-11-10T03:38:52.920Z,10.06
2018-11-10T03:39:27.329Z,10.00
2018-11-10T03:40:02.074Z,10.14
2018-11-10T03:40:36.512Z,10.24
2018-11-10T03:41:11.165Z,10.15
2018-11-10T03:41:45.799Z,10.20
2018-11-10T03:42:20.390Z,10.09
2018-11-10T03:42:54.801Z,9.96
2018-11-10T03:43:29.521Z,10.11
2018-11-10T03:44:03.951Z,10.07
2018-11-10T03:44:38.299Z,10.00
2018-11-10T03:45:13.436Z,9.93
2018-11-10T03:45:48.011Z,9.92
2018-11-10T03:46:22.603Z,9.89
2018-11-10T03:46:56.947Z,9.89
2018-11-10T03:47:31.325Z,9.91
2018-11-10T03:48:05.938Z,9.92
2018-11-10T03:48:40.389Z,9.96
2018-11-10T03:49:15.274Z,10.02
2018-11-10T03:49:49.904Z,9.95
2018-11-10T03:50:24.342Z,9.94
2018-11-10T03:50:58.694Z,9.99
2018-11-10T03:51:33.109Z,10.04
2018-11-10T03:52:07.493Z,10.04
2018-11-10T03:52:42.720Z,9.98
2018-11-10T03:53:17.399Z,9.92
2018-11-10T03:53:51.922Z,9.91
2018-11-10T03:54:26.369Z,9.91
2018-11-10T03:55:00.752Z,9.87
2018-11-10T03:55:35.126Z,9.79
2018-11-10T03:56:09.649Z,9.78
2018-11-10T03:56:44.608Z,9.78
2018-11-10T03:57:19.185Z,9.83
2018-11-10T03:57:53.550Z,9.82
2018-11-10T03:58:27.891Z,9.77
2018-11-10T03:59:02.281Z,9.82
2018-11-10T03:59:37.034Z,9.82
2018-11-10T04:00:13.297Z,9.87
2018-11-10T04:00:47.983Z,9.92
2018-11-10T04:01:22.685Z,9.88
2018-11-10T04:01:57.191Z,9.90
2018-11-10T04:02:31.599Z,9.85
2018-11-10T04:03:06.384Z,9.89
2018-11-10T04:03:41.652Z,10.06
2018-11-10T04:04:16.959Z,10.18
2018-11-10T04:04:51.569Z,10.23
2018-11-10T04:05:25.928Z,10.21
2018-11-10T04:06:00.261Z,10.12
2018-11-10T04:06:34.628Z,10.19
2018-11-10T04:07:09.008Z,10.15
2018-11-10T04:07:44.821Z,10.04
2018-11-10T04:08:19.546Z,10.07
2018-11-10T04:08:53.988Z,10.17
2018-11-10T04:09:28.359Z,10.08
2018-11-10T04:10:02.752Z,10.00
2018-11-10T04:10:37.143Z,9.96
2018-11-10T04:11:11.762Z,9.90
2018-11-10T04:11:46.513Z,9.86
2018-11-10T04:12:21.058Z,9.84
2018-11-10T04:12:55.422Z,9.80
2018-11-10T04:13:29.789Z,9.78
2018-11-10T04:14:05.219Z,9.78
2018-11-10T04:14:39.575Z,9.77
2018-11-10T04:15:14.205Z,9.93
2018-11-10T04:15:48.693Z,9.84
2018-11-10T04:16:23.161Z,10.02
2018-11-10T04:16:57.531Z,9.95
2018-11-10T04:17:31.874Z,9.86
2018-11-10T04:18:06.427Z,9.85
2018-11-10T04:18:40.881Z,9.84
2018-11-10T04:19:15.769Z,9.84
2018-11-10T04:19:50.477Z,9.84
2018-11-10T04:20:24.863Z,9.78
2018-11-10T04:20:59.229Z,9.94
2018-11-10T04:21:33.568Z,10.02
2018-11-10T04:22:07.924Z,9.95
2018-11-10T04:22:42.490Z,10.02
2018-11-10T04:23:17.203Z,10.06
2018-11-10T04:23:51.702Z,9.99
2018-11-10T04:24:26.036Z,10.00
2018-11-10T04:25:00.417Z,10.16
2018-11-10T04:25:34.827Z,10.23
2018-11-10T04:26:09.377Z,10.11
2018-11-10T04:26:44.069Z,10.17
2018-11-10T04:27:18.756Z,10.11
2018-11-10T04:27:53.269Z,10.02
2018-11-10T04:28:27.629Z,10.02
2018-11-10T04:29:02.015Z,10.01
2018-11-10T04:29:36.392Z,10.00
2018-11-10T04:30:11.440Z,9.95
2018-11-10T04:30:46.055Z,9.96
2018-11-10T04:31:20.844Z,9.90
2018-11-10T04:31:55.348Z,9.83
2018-11-10T04:32:29.749Z,9.81
2018-11-10T04:33:04.101Z,9.77
2018-11-10T04:33:38.560Z,9.76
2018-11-10T04:34:13.685Z,9.75
2018-11-10T04:34:48.196Z,9.73
2018-11-10T04:35:22.750Z,9.79
2018-11-10T04:35:57.167Z,9.93
2018-11-10T04:36:31.555Z,9.89
2018-11-10T04:37:06.263Z,9.83
2018-11-10T04:37:41.660Z,9.78
2018-11-10T04:38:16.372Z,9.75
2018-11-10T04:38:50.936Z,9.77
2018-11-10T04:39:25.729Z,9.92
2018-11-10T04:40:00.093Z,9.90
2018-11-10T04:40:34.625Z,9.90
2018-11-10T04:41:09.097Z,9.84
2018-11-10T04:41:44.045Z,9.81
2018-11-10T04:42:18.994Z,9.74
2018-11-10T04:42:53.507Z,9.68
2018-11-10T04:43:27.880Z,9.61
2018-11-10T04:44:02.246Z,9.59
2018-11-10T04:44:36.681Z,9.75
2018-11-10T04:45:12.374Z,9.69
2018-11-10T04:45:46.883Z,9.56
2018-11-10T04:46:21.681Z,9.69
2018-11-10T04:46:56.046Z,9.70
2018-11-10T04:47:30.420Z,9.62
2018-11-10T04:48:05.113Z,9.56
2018-11-10T04:48:39.509Z,9.64
2018-11-10T04:49:14.645Z,9.60
2018-11-10T04:49:49.294Z,9.56
2018-11-10T04:50:23.839Z,9.51
2018-11-10T04:50:58.236Z,9.52
2018-11-10T04:51:32.730Z,9.52
2018-11-10T04:52:07.871Z,9.50
2018-11-10T04:52:43.097Z,9.50
2018-11-10T04:53:18.141Z,9.55
2018-11-10T04:53:52.664Z,9.49
2018-11-10T04:54:27.085Z,9.57
2018-11-10T04:55:01.448Z,9.55
2018-11-10T04:55:35.826Z,9.54
2018-11-10T04:56:10.221Z,9.54
2018-11-10T04:56:44.858Z,9.53
2018-11-10T04:57:19.363Z,9.77
2018-11-10T04:57:53.799Z,9.87
2018-11-10T04:58:28.154Z,9.82
2018-11-10T04:59:02.525Z,9.89
2018-11-10T04:59:36.874Z,9.82
2018-11-10T05:00:14.673Z,9.79
2018-11-10T05:00:49.434Z,9.72
2018-11-10T05:01:23.893Z,9.71
2018-11-10T05:01:58.643Z,9.70
2018-11-10T05:02:32.990Z,9.49
2018-11-10T05:03:07.360Z,9.68
2018-11-10T05:03:42.060Z,9.67
2018-11-10T05:04:16.518Z,9.62
2018-11-10T05:04:50.984Z,9.60
2018-11-10T05:05:25.355Z,9.59
2018-11-10T05:05:59.722Z,9.68
2018-11-10T05:06:34.114Z,9.68
2018-11-10T05:07:08.448Z,9.73
2018-11-10T05:07:42.933Z,9.69
2018-11-10T05:08:17.372Z,9.76
2018-11-10T05:08:51.982Z,9.81
2018-11-10T05:09:26.343Z,9.76
2018-11-10T05:10:00.714Z,9.70
2018-11-10T05:10:35.074Z,9.64
2018-11-10T05:11:09.737Z,9.61
2018-11-10T05:11:44.256Z,9.53
2018-11-10T05:12:19.262Z,9.49
2018-11-10T05:12:53.808Z,9.48
2018-11-10T05:13:28.234Z,9.49
2018-11-10T05:14:02.621Z,9.49
2018-11-10T05:14:36.967Z,9.44
2018-11-10T05:15:12.715Z,9.37
2018-11-10T05:15:47.396Z,9.40
2018-11-10T05:16:22.019Z,9.50
2018-11-10T05:16:57.028Z,9.51
2018-11-10T05:17:31.447Z,9.53
2018-11-10T05:18:06.145Z,9.49
2018-11-10T05:18:41.924Z,9.48
2018-11-10T05:19:16.471Z,9.47
2018-11-10T05:19:50.973Z,9.45
2018-11-10T05:20:25.374Z,9.49
2018-11-10T05:20:59.802Z,9.48
2018-11-10T05:21:34.292Z,9.46
2018-11-10T05:22:08.661Z,9.46
2018-11-10T05:22:43.684Z,9.43
2018-11-10T05:23:18.314Z,9.44
2018-11-10T05:23:52.952Z,9.44
2018-11-10T05:24:27.737Z,9.49
2018-11-10T05:25:02.307Z,9.53
2018-11-10T05:25:36.667Z,9.54
2018-11-10T05:26:11.187Z,9.54
2018-11-10T05:26:46.070Z,9.66
2018-11-10T05:27:20.938Z,9.61
2018-11-10T05:27:55.381Z,9.73
2018-11-10T05:28:29.706Z,9.90
2018-11-10T05:29:05.495Z,9.90
2018-11-10T05:29:39.811Z,9.84
2018-11-10T05:30:14.652Z,9.76
2018-11-10T05:30:49.323Z,9.72
2018-11-10T05:31:24.205Z,9.77
2018-11-10T05:31:58.606Z,9.72
2018-11-10T05:32:33.100Z,9.80
2018-11-10T05:33:07.556Z,9.76
2018-11-10T05:33:42.477Z,9.76
2018-11-10T05:34:17.005Z,9.74
2018-11-10T05:34:51.996Z,9.86
2018-11-10T05:35:26.500Z,9.88
2018-11-10T05:36:00.936Z,9.82
2018-11-10T05:36:35.341Z,9.81
2018-11-10T05:37:10.138Z,9.84
2018-11-10T05:37:44.785Z,9.90
2018-11-10T05:38:19.549Z,10.00
2018-11-10T05:38:54.058Z,9.99
2018-11-10T05:39:28.424Z,9.94
2018-11-10T05:40:02.828Z,9.86
2018-11-10T05:40:37.440Z,9.96
2018-11-10T05:41:12.250Z,9.88
2018-11-10T05:41:47.031Z,9.80
2018-11-10T05:42:21.748Z,9.75
2018-11-10T05:42:56.297Z,9.79
2018-11-10T05:43:30.647Z,9.72
2018-11-10T05:44:05.131Z,9.76
2018-11-10T05:44:39.847Z,9.83
2018-11-10T05:45:14.722Z,9.87
2018-11-10T05:45:49.279Z,9.81
2018-11-10T05:46:23.768Z,9.79
2018-11-10T05:46:58.123Z,9.76
2018-11-10T05:47:32.530Z,9.79
2018-11-10T05:48:07.264Z,9.88
2018-11-10T05:48:41.786Z,9.91
2018-11-10T05:49:16.818Z,10.07
2018-11-10T05:49:51.500Z,9.89
2018-11-10T05:50:25.895Z,10.00
2018-11-10T05:51:00.297Z,9.99
2018-11-10T05:51:34.774Z,9.98
2018-11-10T05:52:09.152Z,9.92
2018-11-10T05:52:44.076Z,9.92
2018-11-10T05:53:18.554Z,10.01
2018-11-10T05:53:53.005Z,9.95
2018-11-10T05:54:27.470Z,9.99
2018-11-10T05:55:01.922Z,9.93
2018-11-10T05:55:36.624Z,10.00
2018-11-10T05:56:11.925Z,9.98
2018-11-10T05:56:46.926Z,10.19
2018-11-10T05:57:21.710Z,10.21
2018-11-10T05:57:56.435Z,10.25
2018-11-10T05:58:30.828Z,10.12
2018-11-10T05:59:05.932Z,9.99
2018-11-10T05:59:40.394Z,9.92
2018-11-10T06:00:15.103Z,9.85
2018-11-10T06:00:49.678Z,9.94
2018-11-10T06:01:24.118Z,9.99
2018-11-10T06:01:58.471Z,9.93
2018-11-10T06:02:32.880Z,9.97
2018-11-10T06:03:07.313Z,9.95
2018-11-10T06:03:41.968Z,9.98
2018-11-10T06:04:16.649Z,10.03
2018-11-10T06:04:51.136Z,10.07
2018-11-10T06:05:25.516Z,10.06
2018-11-10T06:05:59.985Z,9.96
2018-11-10T06:06:34.391Z,9.88
2018-11-10T06:07:08.861Z,9.86
2018-11-10T06:07:43.514Z,10.01
2018-11-10T06:08:18.243Z,10.04
2018-11-10T06:08:52.991Z,9.92
2018-11-10T06:09:27.388Z,9.89
2018-11-10T06:10:02.104Z,9.84
2018-11-10T06:10:36.490Z,9.80
2018-11-10T06:11:11.045Z,9.85
2018-11-10T06:11:45.622Z,9.77
2018-11-10T06:12:20.228Z,9.84
2018-11-10T06:12:54.604Z,9.87
2018-11-10T06:13:29.421Z,9.89
2018-11-10T06:14:04.537Z,9.96
2018-11-10T06:14:39.100Z,9.95
2018-11-10T06:15:14.000Z,9.92
2018-11-10T06:15:48.951Z,9.99
2018-11-10T06:16:23.355Z,10.04
2018-11-10T06:16:57.768Z,9.98
2018-11-10T06:17:32.152Z,9.97
2018-11-10T06:18:07.145Z,10.01
2018-11-10T06:18:41.863Z,9.95
2018-11-10T06:19:16.542Z,9.86
2018-11-10T06:19:51.056Z,9.76
2018-11-10T06:20:25.481Z,9.79
2018-11-10T06:20:59.936Z,9.71
2018-11-10T06:21:34.355Z,9.69
2018-11-10T06:22:08.726Z,9.69
2018-11-10T06:22:43.702Z,9.70
2018-11-10T06:23:18.595Z,9.67
2018-11-10T06:23:53.150Z,9.68
2018-11-10T06:24:27.566Z,9.70
2018-11-10T06:25:02.032Z,9.71
2018-11-10T06:25:36.394Z,9.86
2018-11-10T06:26:10.902Z,9.76
2018-11-10T06:26:46.361Z,9.91
2018-11-10T06:27:21.077Z,9.93
2018-11-10T06:27:55.488Z,9.80
2018-11-10T06:28:29.891Z,9.88
2018-11-10T06:29:04.349Z,9.94
2018-11-10T06:29:39.112Z,9.92
2018-11-10T06:30:13.914Z,9.89
2018-11-10T06:30:48.542Z,9.96
2018-11-10T06:31:23.193Z,9.90
2018-11-10T06:31:57.646Z,9.94
2018-11-10T06:32:32.167Z,10.02
2018-11-10T06:33:07.037Z,9.96
2018-11-10T06:33:41.581Z,9.90
2018-11-10T06:34:16.897Z,9.90
2018-11-10T06:34:51.912Z,9.96
2018-11-10T06:35:26.263Z,10.00
2018-11-10T06:36:00.644Z,9.96
2018-11-10T06:36:35.404Z,9.96
2018-11-10T06:37:09.858Z,10.06
2018-11-10T06:37:44.592Z,9.95
2018-11-10T06:38:19.088Z,9.95
2018-11-10T06:38:53.557Z,9.91
2018-11-10T06:39:28.124Z,9.90
2018-11-10T06:40:02.711Z,9.91
2018-11-10T06:40:37.143Z,9.86
2018-11-10T06:41:11.839Z,9.98
2018-11-10T06:41:46.457Z,9.99
2018-11-10T06:42:21.328Z,9.92
2018-11-10T06:42:55.773Z,9.92
2018-11-10T06:43:30.129Z,9.92
2018-11-10T06:44:04.859Z,9.95
2018-11-10T06:44:39.576Z,10.01
2018-11-10T06:45:14.343Z,10.06
2018-11-10T06:45:49.012Z,9.96
2018-11-10T06:46:23.557Z,10.02
2018-11-10T06:46:57.918Z,9.95
2018-11-10T06:47:32.624Z,10.01
2018-11-10T06:48:07.063Z,10.00
2018-11-10T06:48:41.700Z,10.13
2018-11-10T06:49:16.608Z,10.02
2018-11-10T06:49:51.634Z,10.12
2018-11-10T06:50:26.027Z,10.08
2018-11-10T06:51:00.400Z,10.12
2018-11-10T06:51:34.813Z,10.10
2018-11-10T06:52:09.380Z,10.17
2018-11-10T06:52:43.876Z,10.06
2018-11-10T06:53:18.960Z,10.11
2018-11-10T06:53:53.378Z,10.16
2018-11-10T06:54:27.807Z,10.06
2018-11-10T06:55:02.425Z,10.03
2018-11-10T06:55:36.940Z,10.09
2018-11-10T06:56:11.609Z,10.06
2018-11-10T06:56:46.144Z,10.12
2018-11-10T06:57:20.708Z,10.21
2018-11-10T06:57:55.225Z,10.21
2018-11-10T06:58:29.805Z,10.24
2018-11-10T06:59:04.688Z,10.17
2018-11-10T06:59:39.143Z,10.26
2018-11-10T07:00:15.826Z,10.25
2018-11-10T07:00:50.535Z,10.21
2018-11-10T07:01:24.977Z,10.15
2018-11-10T07:01:59.695Z,10.13
2018-11-10T07:02:34.198Z,10.09
2018-11-10T07:03:08.593Z,10.10
2018-11-10T07:03:43.415Z,10.12
2018-11-10T07:04:17.977Z,10.13
2018-11-10T07:04:52.532Z,10.07
2018-11-10T07:05:26.919Z,10.13
2018-11-10T07:06:01.316Z,10.16
2018-11-10T07:06:35.660Z,10.17
2018-11-10T07:07:10.179Z,10.20
2018-11-10T07:07:44.668Z,10.20
2018-11-10T07:08:19.402Z,10.29
2018-11-10T07:08:54.167Z,10.34
2018-11-10T07:09:28.710Z,10.31
2018-11-10T07:10:03.241Z,10.19
2018-11-10T07:10:37.592Z,10.15
2018-11-10T07:11:12.417Z,10.11
2018-11-10T07:11:47.349Z,10.08
2018-11-10T07:12:21.933Z,10.27
2018-11-10T07:12:56.296Z,10.28
2018-11-10T07:13:30.689Z,10.40
2018-11-10T07:14:05.430Z,10.37
2018-11-10T07:14:39.977Z,10.46
2018-11-10T07:15:14.731Z,10.34
2018-11-10T07:15:50.153Z,10.23
2018-11-10T07:16:24.767Z,10.20
2018-11-10T07:16:59.253Z,10.13
2018-11-10T07:17:33.923Z,10.15
2018-11-10T07:18:08.815Z,10.12
2018-11-10T07:18:43.916Z,10.16
2018-11-10T07:19:18.534Z,10.16
2018-11-10T07:19:53.047Z,10.11
2018-11-10T07:20:27.401Z,10.20
2018-11-10T07:21:01.950Z,10.11
2018-11-10T07:21:36.289Z,10.11
2018-11-10T07:22:10.836Z,10.08
2018-11-10T07:22:45.494Z,10.03
2018-11-10T07:23:20.003Z,10.01
2018-11-10T07:23:54.702Z,10.01
2018-11-10T07:24:29.069Z,9.97
2018-11-10T07:25:03.589Z,9.96
2018-11-10T07:25:38.066Z,9.99
2018-11-10T07:26:13.163Z,9.99
2018-11-10T07:26:47.900Z,10.14
2018-11-10T07:27:22.495Z,10.15
2018-11-10T07:27:56.858Z,10.18
2018-11-10T07:28:31.244Z,10.15
2018-11-10T07:29:05.646Z,10.18
2018-11-10T07:29:40.247Z,10.29
2018-11-10T07:30:16.436Z,10.25
2018-11-10T07:30:51.190Z,10.28
2018-11-10T07:31:25.766Z,10.26
2018-11-10T07:32:00.413Z,10.21
2018-11-10T07:32:35.168Z,10.15
2018-11-10T07:33:09.806Z,10.19
2018-11-10T07:33:44.449Z,10.15
2018-11-10T07:34:19.153Z,10.21
2018-11-10T07:34:54.232Z,10.18
2018-11-10T07:35:28.902Z,10.13
2018-11-10T07:36:03.380Z,10.22
2018-11-10T07:36:37.892Z,10.16
2018-11-10T07:37:12.747Z,10.18